Portada
METAR-TAF:

METAR-TAF

Aeroports :

Dibrugarh, Índia

latitud: 27-29N, longitud: 095-01E, altitud: 110 m

Observació

L'informe es va fer fa 29 minuts, a les 06:00 UTC
Vent 3 kt del Nord
Temperatura 31°C
Humitat 59%
Pressió 1014 hPa
Visibilitat: 6000 m
Escasses núvols a una alçada de 2500 ft

METAR: VEMN 140600Z 36003KT 6000 FEW025 31/22 Q1014 NOSIG

Hora: 11:59 (06:29 UTC)

Pronòstic

L'informe es va fer fa 1 hora i 29 minuts, a les 05:00 UTC
Pronòstic vàlid del 14 a les 06 UTC al 14 a les 15 UTC
Vent 8 kt del Nord-Est
Visibilitat: 6000 m
Escasses núvols a una alçada de 2500 ft
Evolucionant progressivament
l' 14 a les 12 UTC al 14 a les 15 UTC
Vent 5 kt del Est/Nord-Est
Visibilitat: 3000 m
Escasses núvols a una alçada de 2000 ft
Núvols disperses a una alçada de 10000 ft
calitja

TAF: VEMN 140500Z 1406/1415 05008KT 6000 FEW025 BECMG 1412/1415 07005KT 3000 HZ FEW020 SCT100

Observacions i pronòstics meteorològics de més de 4000 aeroports (METAR i TAF).

Les estacions disponibles són els punts grocs i vermells al mapa.

Posi el ratolí al punt desitjat per veure el nom de l'estació.

Feu clic per veure les observacions i els pronòstics meteorològics.

Per canviar el mapa: feu clic els botons verds amb una creu de color negre per apropar; al botó verd amb un guió per allunyar la imatge; o en les fletxes verdes per a mapes adjacents.


METAR-TAF: